Time;durP1;ratioP1;P1;durP2;ratioP2;P2;SDS_P1;SDS_P2;PMS_P1;PMS_P2;Temp;Humidity;BMP_temperature;BMP_pressure;BME280_temperature;BME280_humidity;BME280_pressure;Samples;Min_cycle;Max_cycle;Signal;HPM_P1;HPM_P2
2022/05/07 00:00:36;;;;;;;29.35;23.98;;;10.90;99.90;;;;;;5007667;28;20081;-60
2022/05/07 00:03:02;;;;;;;32.30;24.25;;;11.00;99.90;;;;;;5005741;28;20033;-59
2022/05/07 00:05:28;;;;;;;29.08;23.27;;;11.00;99.90;;;;;;5003120;28;20026;-60
2022/05/07 00:07:53;;;;;;;32.53;23.48;;;10.90;99.90;;;;;;5005925;28;20028;-58
2022/05/07 00:10:19;;;;;;;27.33;21.80;;;10.90;99.90;;;;;;5004766;28;20029;-59
2022/05/07 00:12:45;;;;;;;31.50;24.83;;;10.80;99.90;;;;;;5003104;28;20033;-58
2022/05/07 00:15:10;;;;;;;31.55;23.65;;;10.70;99.90;;;;;;5009106;28;20053;-59
2022/05/07 00:20:20;;;;;;;;;;;10.80;99.90;;;;;;4999577;28;20893;-59
2022/05/07 00:22:46;;;;;;;31.38;24.83;;;10.80;99.90;;;;;;5005246;28;19917;-58
2022/05/07 00:25:12;;;;;;;34.80;25.20;;;10.70;99.90;;;;;;4976084;28;20514;-57
2022/05/07 00:27:38;;;;;;;29.08;23.85;;;10.70;99.90;;;;;;4982657;28;20485;-56
2022/05/07 00:30:05;;;;;;;32.38;25.08;;;10.60;99.90;;;;;;5007966;28;20029;-60
2022/05/07 00:32:30;;;;;;;28.63;24.05;;;10.60;99.90;;;;;;5005407;28;20034;-60
2022/05/07 00:34:56;;;;;;;35.35;25.65;;;10.60;99.90;;;;;;5004617;28;20394;-60
2022/05/07 00:37:23;;;;;;;33.35;24.65;;;10.50;99.90;;;;;;5005606;28;20021;-59
2022/05/07 00:39:49;;;;;;;30.40;24.20;;;10.50;99.90;;;;;;5003588;28;20041;-60
2022/05/07 00:42:15;;;;;;;30.98;25.55;;;10.40;99.90;;;;;;5006055;28;20034;-60
2022/05/07 00:44:41;;;;;;;33.03;25.80;;;10.40;99.90;;;;;;4997760;28;20033;-60
2022/05/07 00:47:06;;;;;;;32.78;25.95;;;10.30;99.90;;;;;;5007309;28;20480;-59
2022/05/07 00:49:32;;;;;;;31.95;25.85;;;10.20;99.90;;;;;;5002239;28;20032;-59
2022/05/07 00:51:57;;;;;;;32.42;25.77;;;10.10;99.90;;;;;;5003728;28;20037;-59
2022/05/07 00:54:23;;;;;;;33.17;24.92;;;10.10;99.90;;;;;;4999710;28;20054;-59
2022/05/07 00:56:49;;;;;;;32.47;26.45;;;10.00;99.90;;;;;;5003922;28;20023;-59
2022/05/07 00:59:14;;;;;;;30.48;24.23;;;10.00;99.90;;;;;;5005103;28;20033;-60
2022/05/07 01:01:40;;;;;;;31.17;25.33;;;9.90;99.90;;;;;;5003182;28;20038;-59
2022/05/07 01:04:06;;;;;;;37.17;26.98;;;9.90;99.90;;;;;;5004818;28;20124;-59
2022/05/07 01:06:31;;;;;;;35.78;26.88;;;9.90;99.90;;;;;;5004610;28;20022;-60
2022/05/07 01:08:57;;;;;;;33.75;26.92;;;9.80;99.90;;;;;;5002208;28;20026;-59
2022/05/07 01:11:25;;;;;;;36.50;28.30;;;9.80;99.90;;;;;;5007115;28;20045;-59
2022/05/07 01:13:52;;;;;;;37.67;27.80;;;9.80;99.90;;;;;;5006064;28;20038;-60
2022/05/07 01:16:18;;;;;;;33.67;27.08;;;9.80;99.90;;;;;;5004838;28;20026;-59
2022/05/07 01:18:43;;;;;;;37.58;28.10;;;9.80;99.90;;;;;;5002800;28;20711;-60
2022/05/07 01:21:12;;;;;;;38.97;29.35;;;9.80;99.90;;;;;;5004678;28;20029;-59
2022/05/07 01:23:38;;;;;;;38.40;29.05;;;9.70;99.90;;;;;;5005707;28;20029;-60
2022/05/07 01:26:04;;;;;;;39.83;31.00;;;9.80;99.90;;;;;;4990533;28;20049;-60
2022/05/07 01:28:29;;;;;;;40.60;31.33;;;9.70;99.90;;;;;;4997708;28;20026;-60
2022/05/07 01:30:55;;;;;;;38.05;30.27;;;9.70;99.90;;;;;;4999697;28;20026;-60
2022/05/07 01:33:21;;;;;;;38.65;29.35;;;9.80;99.90;;;;;;5003136;28;20034;-60
2022/05/07 01:35:47;;;;;;;40.95;30.52;;;9.80;99.90;;;;;;4994490;28;20491;-59
2022/05/07 01:38:12;;;;;;;37.25;28.17;;;9.70;99.90;;;;;;4994875;28;20026;-59
2022/05/07 01:40:38;;;;;;;45.58;30.52;;;9.80;99.90;;;;;;4994753;28;20031;-59
2022/05/07 01:43:03;;;;;;;37.55;29.58;;;9.80;99.90;;;;;;4994104;28;20030;-60
2022/05/07 01:45:29;;;;;;;40.13;30.63;;;9.80;99.90;;;;;;4998770;28;20095;-59
2022/05/07 01:48:10;;;;;;;40.13;31.63;;;9.80;99.90;;;;;;4996225;28;20031;-60
2022/05/07 01:50:39;;;;;;;41.47;30.35;;;9.80;99.90;;;;;;5000493;28;20026;-59
2022/05/07 01:53:07;;;;;;;39.38;31.02;;;9.70;99.90;;;;;;5005163;28;20014;-60
2022/05/07 01:55:33;;;;;;;42.92;30.85;;;9.70;99.90;;;;;;5002898;28;20069;-59
2022/05/07 01:57:59;;;;;;;44.03;31.27;;;9.70;99.90;;;;;;4999883;28;20022;-59
2022/05/07 02:00:25;;;;;;;37.65;28.27;;;9.70;99.90;;;;;;5000727;28;20030;-59
2022/05/07 02:02:50;;;;;;;39.42;29.73;;;9.70;99.90;;;;;;4994261;28;20087;-59
2022/05/07 02:05:16;;;;;;;42.05;30.58;;;9.60;99.90;;;;;;4998474;28;20088;-59
2022/05/07 02:07:42;;;;;;;38.17;30.08;;;9.60;99.90;;;;;;5004271;28;20120;-60
2022/05/07 02:10:08;;;;;;;39.00;29.40;;;9.50;99.90;;;;;;5000932;28;20106;-60
2022/05/07 02:12:34;;;;;;;39.38;29.10;;;9.50;99.90;;;;;;5002698;28;20186;-60
2022/05/07 02:14:59;;;;;;;34.30;29.30;;;9.50;99.90;;;;;;4993987;28;20569;-59
2022/05/07 02:17:25;;;;;;;39.78;30.80;;;9.40;99.90;;;;;;4981674;28;20038;-59
2022/05/07 02:19:50;;;;;;;41.47;32.08;;;9.30;99.90;;;;;;4985384;28;20027;-60
2022/05/07 02:22:16;;;;;;;45.42;32.78;;;9.30;99.90;;;;;;5004235;28;20033;-59
2022/05/07 02:24:42;;;;;;;55.25;33.75;;;9.30;99.90;;;;;;4995053;28;20030;-59
2022/05/07 02:27:08;;;;;;;45.80;30.83;;;9.30;99.90;;;;;;4994738;28;20125;-59
2022/05/07 02:29:33;;;;;;;46.63;33.13;;;9.30;99.90;;;;;;5001331;28;20559;-58
2022/05/07 02:32:06;;;;;;;42.85;32.22;;;9.30;99.90;;;;;;5007405;28;20034;-60
2022/05/07 02:34:35;;;;;;;43.33;33.78;;;9.30;99.90;;;;;;4997226;28;20026;-58
2022/05/07 02:37:02;;;;;;;42.75;33.30;;;9.30;99.90;;;;;;4979956;28;20027;-59
2022/05/07 02:39:28;;;;;;;41.70;33.05;;;9.30;99.90;;;;;;4999869;28;20502;-59
2022/05/07 02:44:38;;;;;;;;;;;9.20;99.90;;;;;;5002636;28;20049;-60
2022/05/07 02:47:04;;;;;;;47.35;34.03;;;9.20;99.90;;;;;;5003431;28;19910;-60
2022/05/07 02:49:31;;;;;;;42.88;33.17;;;9.20;99.90;;;;;;4999387;28;20018;-59
2022/05/07 02:51:57;;;;;;;39.95;32.17;;;9.20;99.90;;;;;;5002269;28;20091;-59
2022/05/07 02:54:22;;;;;;;45.22;32.88;;;9.20;99.90;;;;;;5009846;28;20426;-59
2022/05/07 02:56:48;;;;;;;38.20;30.88;;;9.20;99.90;;;;;;5013775;28;20048;-59
2022/05/07 02:59:13;;;;;;;40.00;31.55;;;9.10;99.90;;;;;;5011624;28;20395;-58
2022/05/07 03:01:41;;;;;;;41.30;31.33;;;9.10;99.90;;;;;;5010333;28;20044;-59
2022/05/07 03:04:08;;;;;;;38.13;30.88;;;9.00;99.90;;;;;;5005397;28;20052;-59
2022/05/07 03:06:34;;;;;;;36.55;29.55;;;9.00;99.90;;;;;;5011099;28;20029;-59
2022/05/07 03:09:00;;;;;;;54.42;32.22;;;9.00;99.90;;;;;;5004070;28;20037;-59
2022/05/07 03:11:26;;;;;;;40.40;31.25;;;8.90;99.90;;;;;;5010720;28;20026;-60
2022/05/07 03:13:51;;;;;;;40.45;31.10;;;8.80;99.90;;;;;;5005352;28;20030;-59
2022/05/07 03:16:17;;;;;;;45.75;33.53;;;8.70;99.90;;;;;;5002220;28;20028;-60
2022/05/07 03:18:43;;;;;;;44.97;35.05;;;8.70;99.90;;;;;;5011739;28;20123;-59
2022/05/07 03:21:08;;;;;;;48.45;34.50;;;8.70;99.90;;;;;;5013216;28;20123;-59
2022/05/07 03:23:34;;;;;;;44.20;34.13;;;8.70;99.90;;;;;;5007945;28;20403;-60
2022/05/07 03:25:59;;;;;;;45.45;34.80;;;8.70;99.90;;;;;;4989921;28;20492;-59
2022/05/07 03:28:25;;;;;;;50.47;34.85;;;8.70;99.90;;;;;;5008976;28;20151;-60
2022/05/07 03:30:50;;;;;;;44.33;34.38;;;8.60;99.90;;;;;;5012234;28;20100;-60
2022/05/07 03:33:16;;;;;;;44.60;35.00;;;8.70;99.90;;;;;;5005829;28;20042;-59
2022/05/07 03:35:43;;;;;;;47.88;35.33;;;8.60;99.90;;;;;;5011689;28;20030;-60
2022/05/07 03:38:09;;;;;;;47.05;35.70;;;8.70;99.90;;;;;;5010836;28;20038;-60
2022/05/07 03:40:35;;;;;;;44.35;35.63;;;8.70;99.90;;;;;;5011542;28;20030;-60
2022/05/07 03:43:03;;;;;;;49.30;35.33;;;8.70;99.90;;;;;;5009043;28;20064;-60
2022/05/07 03:45:29;;;;;;;48.15;35.88;;;8.80;99.90;;;;;;5010133;28;20044;-59
2022/05/07 03:47:54;;;;;;;42.58;34.85;;;8.80;99.90;;;;;;5003439;28;20043;-58
2022/05/07 03:50:20;;;;;;;42.53;33.92;;;8.80;99.90;;;;;;4999967;28;20124;-56
2022/05/07 03:55:29;;;;;;;46.15;34.25;;;8.80;99.90;;;;;;5010636;28;20411;-60
2022/05/07 03:57:55;;;;;;;46.63;33.92;;;8.80;99.90;;;;;;5010866;28;20034;-60
2022/05/07 04:00:20;;;;;;;45.60;33.70;;;8.80;99.90;;;;;;5008298;28;20034;-56
2022/05/07 04:02:46;;;;;;;42.60;34.13;;;8.90;99.90;;;;;;5011055;28;20040;-60
2022/05/07 04:05:11;;;;;;;45.65;34.63;;;8.90;99.90;;;;;;5008453;28;20037;-60
2022/05/07 04:07:37;;;;;;;43.78;33.20;;;8.90;99.90;;;;;;5011182;28;20030;-59
2022/05/07 04:10:03;;;;;;;46.20;32.60;;;8.90;99.90;;;;;;5007628;28;20113;-60
2022/05/07 04:12:29;;;;;;;41.25;32.05;;;8.90;99.90;;;;;;5021314;28;20068;-60
2022/05/07 04:15:01;;;;;;;39.78;32.75;;;8.90;99.90;;;;;;5007397;28;20129;-60
2022/05/07 04:17:27;;;;;;;47.58;33.50;;;8.90;99.90;;;;;;5011457;28;20034;-59
2022/05/07 04:19:54;;;;;;;40.08;32.05;;;8.90;99.90;;;;;;4998042;28;20045;-60
2022/05/07 04:22:19;;;;;;;41.03;32.30;;;8.90;99.90;;;;;;5009972;28;20172;-58
2022/05/07 04:24:45;;;;;;;40.22;31.48;;;9.00;99.90;;;;;;5008284;28;20703;-60
2022/05/07 04:27:11;;;;;;;45.97;29.77;;;9.10;99.90;;;;;;4992843;28;20127;-57
2022/05/07 04:29:37;;;;;;;38.38;29.50;;;9.10;99.90;;;;;;5004822;28;20088;-60
2022/05/07 04:32:03;;;;;;;40.25;30.23;;;9.20;99.90;;;;;;5010215;28;20057;-58
2022/05/07 04:34:29;;;;;;;44.97;29.42;;;9.10;99.90;;;;;;5004106;28;20022;-60
2022/05/07 04:36:55;;;;;;;38.78;28.05;;;9.20;99.90;;;;;;5002689;28;20137;-60
2022/05/07 04:39:21;;;;;;;37.08;28.70;;;9.40;99.90;;;;;;5005764;28;20038;-60
2022/05/07 04:41:47;;;;;;;39.30;29.92;;;9.50;99.90;;;;;;5009574;28;20037;-60
2022/05/07 04:44:12;;;;;;;38.70;26.73;;;9.60;99.90;;;;;;5009196;28;20029;-60
2022/05/07 04:46:39;;;;;;;36.42;26.42;;;9.70;99.90;;;;;;5004648;28;20431;-60
2022/05/07 04:49:06;;;;;;;33.10;25.77;;;9.90;99.90;;;;;;5004987;28;20030;-59
2022/05/07 04:51:32;;;;;;;40.05;27.17;;;9.90;99.90;;;;;;5009535;28;20395;-60
2022/05/07 04:53:57;;;;;;;35.33;25.48;;;10.10;99.90;;;;;;5007763;28;20105;-59
2022/05/07 04:56:24;;;;;;;36.72;26.63;;;10.20;99.90;;;;;;5008601;28;20034;-60
2022/05/07 04:58:51;;;;;;;29.98;24.48;;;10.30;99.90;;;;;;5002534;28;20396;-60
2022/05/07 05:01:16;;;;;;;33.55;24.80;;;10.40;99.90;;;;;;5003538;28;20096;-59
2022/05/07 05:03:42;;;;;;;31.75;24.75;;;10.60;99.90;;;;;;5006402;28;20030;-60
2022/05/07 05:06:08;;;;;;;32.60;24.65;;;10.80;99.90;;;;;;5005893;28;20391;-60
2022/05/07 05:08:33;;;;;;;31.23;24.52;;;10.90;99.90;;;;;;5010174;28;20065;-60
2022/05/07 05:10:59;;;;;;;29.95;21.88;;;11.20;99.90;;;;;;5009978;28;20026;-60
2022/05/07 05:13:24;;;;;;;28.95;22.80;;;11.40;99.90;;;;;;5006321;28;20476;-60
2022/05/07 05:15:50;;;;;;;28.45;21.48;;;11.90;99.90;;;;;;4996749;28;20396;-56
2022/05/07 05:18:16;;;;;;;25.02;21.27;;;12.20;99.90;;;;;;5010368;28;20041;-59
2022/05/07 05:20:42;;;;;;;27.52;21.85;;;12.60;99.90;;;;;;4987469;28;20033;-56
2022/05/07 05:23:07;;;;;;;24.67;19.75;;;13.00;99.90;;;;;;4991248;28;20049;-59
2022/05/07 05:25:33;;;;;;;28.13;19.70;;;13.30;99.90;;;;;;4973004;28;20042;-59
2022/05/07 05:27:58;;;;;;;32.15;20.08;;;13.60;99.90;;;;;;5009908;28;20022;-58
2022/05/07 05:30:24;;;;;;;24.98;18.55;;;14.10;99.90;;;;;;5004310;28;20105;-59
2022/05/07 05:32:50;;;;;;;29.48;20.08;;;14.30;99.90;;;;;;5003547;28;20084;-59
2022/05/07 05:35:15;;;;;;;24.65;18.83;;;14.40;99.90;;;;;;5007555;28;20026;-59
2022/05/07 05:37:41;;;;;;;26.80;20.70;;;14.70;99.90;;;;;;5009174;28;20034;-60
2022/05/07 05:40:07;;;;;;;24.70;20.42;;;14.60;99.90;;;;;;5001317;28;20475;-60
2022/05/07 05:42:33;;;;;;;24.15;19.58;;;14.80;99.70;;;;;;5008716;28;20164;-61
2022/05/07 05:44:58;;;;;;;23.15;19.48;;;15.00;99.40;;;;;;5004984;28;20097;-61
2022/05/07 05:47:24;;;;;;;24.08;20.35;;;15.20;99.50;;;;;;4999709;28;20105;-59
2022/05/07 05:49:50;;;;;;;22.15;19.40;;;15.20;98.70;;;;;;5001935;28;20411;-60
2022/05/07 05:52:16;;;;;;;26.45;19.25;;;15.50;98.90;;;;;;5007404;28;20030;-61
2022/05/07 05:54:41;;;;;;;21.48;18.80;;;15.60;98.10;;;;;;5004824;28;20030;-60
2022/05/07 05:57:07;;;;;;;19.83;17.73;;;15.90;98.10;;;;;;5006796;28;20037;-60
2022/05/07 05:59:33;;;;;;;22.15;18.40;;;16.70;95.90;;;;;;5006160;28;20109;-61
2022/05/07 06:01:58;;;;;;;26.90;16.55;;;17.30;96.00;;;;;;5007176;28;20034;-60
2022/05/07 06:04:24;;;;;;;23.13;16.65;;;17.90;94.00;;;;;;5005834;28;20030;-61
2022/05/07 06:06:49;;;;;;;19.80;17.13;;;17.90;92.60;;;;;;4998601;28;20046;-60
2022/05/07 06:09:15;;;;;;;23.67;17.02;;;18.00;93.30;;;;;;5007665;28;20100;-60
2022/05/07 06:11:41;;;;;;;19.73;15.70;;;18.50;91.80;;;;;;5007180;28;20018;-60
2022/05/07 06:14:07;;;;;;;18.63;16.25;;;18.40;91.70;;;;;;5007226;28;20476;-61
2022/05/07 06:16:32;;;;;;;19.15;16.88;;;19.00;91.20;;;;;;5009487;28;20030;-61
2022/05/07 06:18:59;;;;;;;19.95;16.02;;;19.40;90.40;;;;;;5001712;28;20030;-61
2022/05/07 06:21:26;;;;;;;19.58;15.80;;;19.80;89.80;;;;;;4998529;28;20030;-61
2022/05/07 06:23:51;;;;;;;18.35;15.80;;;20.50;86.40;;;;;;5010205;28;20415;-61
2022/05/07 06:29:01;;;;;;;23.45;17.08;;;21.40;78.50;;;;;;5005886;28;20041;-61
2022/05/07 06:31:27;;;;;;;24.88;17.88;;;21.70;77.70;;;;;;5009204;28;20030;-60
2022/05/07 06:33:52;;;;;;;19.05;16.98;;;21.90;75.60;;;;;;5009842;28;20045;-61
2022/05/07 06:36:18;;;;;;;20.70;17.08;;;22.40;76.30;;;;;;5011452;28;20080;-58
2022/05/07 06:38:43;;;;;;;20.38;16.60;;;22.70;74.00;;;;;;5009063;28;20022;-58
2022/05/07 06:41:09;;;;;;;19.73;16.23;;;23.40;72.70;;;;;;5012120;28;20037;-59
2022/05/07 06:43:35;;;;;;;19.08;16.27;;;23.20;70.60;;;;;;5003827;28;20034;-59
2022/05/07 06:46:01;;;;;;;18.67;16.73;;;23.80;70.80;;;;;;5011405;28;20384;-59
2022/05/07 06:48:27;;;;;;;19.42;16.77;;;23.70;69.40;;;;;;5010238;28;20034;-58
2022/05/07 06:50:54;;;;;;;16.17;14.38;;;23.60;67.10;;;;;;5012356;28;20022;-60
2022/05/07 06:53:20;;;;;;;18.33;15.93;;;23.70;68.80;;;;;;5008819;28;20042;-59
2022/05/07 06:56:03;;;;;;;18.77;15.60;;;25.10;66.60;;;;;;5012036;28;20155;-60
2022/05/07 06:58:30;;;;;;;20.40;14.43;;;24.60;67.20;;;;;;4993101;28;20479;-59
2022/05/07 07:00:57;;;;;;;18.38;13.90;;;25.40;65.30;;;;;;5005338;28;20018;-60
2022/05/07 07:03:23;;;;;;;16.80;15.05;;;25.60;65.40;;;;;;4999310;28;20031;-59
2022/05/07 07:05:50;;;;;;;20.42;15.30;;;25.70;65.00;;;;;;5010740;28;20018;-58
2022/05/07 07:08:16;;;;;;;18.70;14.35;;;25.20;64.40;;;;;;5010329;28;20038;-60
2022/05/07 07:10:42;;;;;;;16.00;14.05;;;25.00;65.50;;;;;;5012316;28;20029;-59
2022/05/07 07:13:08;;;;;;;18.38;16.42;;;24.60;65.30;;;;;;5009973;28;20030;-59
2022/05/07 07:15:33;;;;;;;18.80;15.27;;;24.40;64.00;;;;;;5012445;28;20140;-59
2022/05/07 07:17:59;;;;;;;17.80;15.27;;;24.50;64.10;;;;;;5008893;28;20391;-56
2022/05/07 07:20:24;;;;;;;16.15;13.68;;;24.60;63.70;;;;;;5005979;28;20025;-59
2022/05/07 07:22:50;;;;;;;15.35;12.75;;;24.80;62.70;;;;;;4999625;28;20098;-60
2022/05/07 07:25:16;;;;;;;14.55;13.05;;;24.80;61.90;;;;;;5001970;28;20478;-59
2022/05/07 07:27:42;;;;;;;17.40;14.45;;;25.00;63.80;;;;;;4995006;28;20056;-59
2022/05/07 07:30:08;;;;;;;15.48;12.80;;;25.30;62.30;;;;;;5002065;28;20097;-60
2022/05/07 07:32:33;;;;;;;14.05;12.55;;;25.90;62.00;;;;;;5010001;28;20487;-60
2022/05/07 07:34:59;;;;;;;13.88;12.48;;;27.40;60.60;;;;;;5011355;28;20030;-60
2022/05/07 07:37:25;;;;;;;15.90;12.95;;;28.60;58.40;;;;;;5012246;28;20030;-59
2022/05/07 07:39:51;;;;;;;17.52;13.45;;;28.90;57.90;;;;;;5001297;28;20080;-59
2022/05/07 07:42:17;;;;;;;18.83;12.63;;;28.20;58.80;;;;;;5010631;28;20030;-59
2022/05/07 07:44:42;;;;;;;15.35;13.82;;;28.50;57.60;;;;;;5006298;28;20473;-59
2022/05/07 07:49:52;;;;;;;14.85;12.80;;;28.30;58.30;;;;;;5009231;28;20036;-60
2022/05/07 07:52:19;;;;;;;13.25;11.85;;;28.70;57.70;;;;;;5009646;28;20018;-59
2022/05/07 07:54:44;;;;;;;16.70;13.90;;;29.20;56.40;;;;;;5006907;28;20049;-60
2022/05/07 07:57:10;;;;;;;17.05;13.90;;;28.60;57.10;;;;;;5009258;28;20042;-60
2022/05/07 07:59:35;;;;;;;18.55;14.02;;;27.80;57.30;;;;;;5006596;28;20022;-59
2022/05/07 08:02:01;;;;;;;16.27;13.70;;;26.90;58.00;;;;;;5003814;28;20627;-60
2022/05/07 08:04:27;;;;;;;16.98;12.68;;;27.30;60.20;;;;;;5007052;28;20033;-59
2022/05/07 08:12:20;;;;;;;17.30;13.30;;;28.30;56.20;;;;;;5009270;28;20107;-58
2022/05/07 08:14:46;;;;;;;13.80;12.27;;;29.50;55.90;;;;;;5005173;28;20084;-60
2022/05/07 08:17:13;;;;;;;18.40;13.75;;;29.80;56.40;;;;;;5009907;28;20026;-59
2022/05/07 08:19:39;;;;;;;18.92;13.85;;;29.00;56.80;;;;;;5009385;28;20395;-60
2022/05/07 08:22:05;;;;;;;18.95;14.45;;;28.70;56.20;;;;;;5000627;28;20030;-59
2022/05/07 08:24:31;;;;;;;16.00;14.25;;;28.80;56.40;;;;;;4997716;28;20045;-59
2022/05/07 08:26:56;;;;;;;16.92;12.95;;;28.80;57.00;;;;;;4995376;28;20052;-59
2022/05/07 08:29:23;;;;;;;21.42;16.67;;;29.90;56.40;;;;;;5007463;28;20048;-60
2022/05/07 08:31:50;;;;;;;28.63;18.45;;;28.80;53.80;;;;;;5008592;28;20057;-60
2022/05/07 08:34:15;;;;;;;20.88;17.10;;;28.80;54.10;;;;;;5006050;28;20024;-60
2022/05/07 08:36:41;;;;;;;26.98;17.95;;;29.40;53.70;;;;;;5004910;28;20105;-60
2022/05/07 08:39:06;;;;;;;29.80;19.23;;;28.80;53.20;;;;;;5001556;28;20675;-59
2022/05/07 08:41:32;;;;;;;26.55;19.05;;;28.00;54.40;;;;;;5002990;28;20029;-60
2022/05/07 08:43:58;;;;;;;24.63;17.30;;;27.50;54.70;;;;;;5007844;28;20554;-60
2022/05/07 08:46:24;;;;;;;30.92;18.08;;;27.50;55.00;;;;;;5007499;28;20084;-59
2022/05/07 08:48:51;;;;;;;25.80;16.92;;;27.40;56.40;;;;;;5003519;28;20030;-59
2022/05/07 08:51:19;;;;;;;27.88;17.67;;;27.50;55.90;;;;;;5008900;28;20064;-59
2022/05/07 08:53:49;;;;;;;38.38;19.90;;;27.70;54.60;;;;;;5006902;28;20018;-60
2022/05/07 08:56:16;;;;;;;25.08;17.50;;;27.50;55.60;;;;;;5007034;28;20030;-60
2022/05/07 08:58:53;;;;;;;27.38;16.25;;;27.60;58.00;;;;;;5004868;28;20038;-59
2022/05/07 09:01:19;;;;;;;32.08;18.58;;;28.90;54.20;;;;;;5007847;28;20053;-60
2022/05/07 09:03:47;;;;;;;30.20;19.52;;;28.60;53.30;;;;;;5002592;28;20029;-59
2022/05/07 09:06:22;;;;;;;26.55;18.45;;;28.10;54.70;;;;;;5009648;28;20040;-59
2022/05/07 09:08:48;;;;;;;30.88;18.90;;;28.10;56.00;;;;;;5007919;28;20479;-59
2022/05/07 09:11:17;;;;;;;33.55;18.98;;;28.30;54.30;;;;;;5008370;28;20029;-59
2022/05/07 09:13:42;;;;;;;33.80;20.15;;;28.00;54.10;;;;;;5007982;28;20403;-60
2022/05/07 09:16:08;;;;;;;29.58;17.67;;;27.70;53.50;;;;;;5003260;28;20018;-59
2022/05/07 09:18:34;;;;;;;29.45;17.75;;;28.20;54.80;;;;;;5004851;28;20061;-60
2022/05/07 09:21:26;;;;;;;34.28;18.60;;;28.10;56.00;;;;;;5004025;28;20054;-60
2022/05/07 09:23:58;;;;;;;31.43;18.97;;;28.50;54.10;;;;;;5004648;28;20458;-60
2022/05/07 09:26:32;;;;;;;30.33;17.13;;;28.20;53.00;;;;;;4992315;28;20128;-55
2022/05/07 09:29:00;;;;;;;30.08;18.05;;;28.40;53.70;;;;;;5003817;28;20034;-58
2022/05/07 09:31:27;;;;;;;31.75;18.77;;;28.70;53.00;;;;;;5010507;28;20118;-60
2022/05/07 09:36:42;;;;;;;28.15;17.80;;;28.30;52.50;;;;;;5008759;28;20040;-60
2022/05/07 09:39:10;;;;;;;26.10;16.40;;;28.10;54.40;;;;;;5008232;28;20092;-60
2022/05/07 09:41:35;;;;;;;19.13;13.57;;;28.40;53.00;;;;;;5001509;28;20033;-60
2022/05/07 09:44:01;;;;;;;27.58;14.52;;;28.10;53.70;;;;;;4998824;28;20030;-60
2022/05/07 09:46:30;;;;;;;22.77;15.85;;;28.10;54.40;;;;;;4997082;28;20030;-59
2022/05/07 09:48:59;;;;;;;24.45;14.35;;;27.70;55.10;;;;;;4997101;28;20392;-60
2022/05/07 09:51:24;;;;;;;25.20;15.30;;;27.60;54.40;;;;;;5008322;28;20022;-60
2022/05/07 09:59:18;;;;;;;23.27;13.88;;;26.90;55.80;;;;;;5009202;28;20040;-59
2022/05/07 10:01:56;;;;;;;23.30;14.65;;;26.90;55.70;;;;;;5003912;28;20566;-59
2022/05/07 10:04:43;;;;;;;21.55;14.68;;;26.40;55.70;;;;;;5000393;28;20044;-57
2022/05/07 10:07:40;;;;;;;23.90;14.32;;;26.20;55.90;;;;;;5007602;28;20053;-58
2022/05/07 10:10:22;;;;;;;19.45;14.35;;;26.30;56.80;;;;;;5009442;28;20080;-59
2022/05/07 10:12:47;;;;;;;24.98;15.07;;;26.50;56.30;;;;;;5007464;28;20033;-59
2022/05/07 10:15:20;;;;;;;27.55;15.60;;;26.60;56.10;;;;;;5010280;28;20052;-59
2022/05/07 10:18:07;;;;;;;27.33;14.77;;;26.60;54.80;;;;;;5011535;28;20018;-58
2022/05/07 10:20:41;;;;;;;20.13;13.73;;;26.50;55.00;;;;;;5011263;28;20122;-59
2022/05/07 10:23:11;;;;;;;25.27;15.35;;;26.70;54.50;;;;;;5011021;28;20101;-59
2022/05/07 10:25:37;;;;;;;21.83;13.45;;;26.50;55.10;;;;;;5004796;28;20100;-59
2022/05/07 10:28:14;;;;;;;22.15;13.23;;;26.60;57.70;;;;;;4991367;28;20034;-59
2022/05/07 10:30:46;;;;;;;22.02;13.57;;;26.40;55.90;;;;;;5008686;28;20022;-59
2022/05/07 10:33:12;;;;;;;19.60;13.13;;;25.70;57.50;;;;;;5005184;28;20113;-58
2022/05/07 10:35:38;;;;;;;22.85;14.27;;;26.00;55.90;;;;;;5008294;28;20360;-59
2022/05/07 10:38:06;;;;;;;20.90;13.93;;;25.90;57.00;;;;;;5010155;28;20056;-59
2022/05/07 10:40:31;;;;;;;18.92;13.15;;;25.70;58.50;;;;;;5008097;28;20048;-59
2022/05/07 10:42:57;;;;;;;19.45;13.38;;;25.50;59.10;;;;;;5011833;28;20487;-62
2022/05/07 10:45:23;;;;;;;21.25;12.35;;;25.90;58.00;;;;;;5011593;28;20041;-55
2022/05/07 10:47:55;;;;;;;22.90;14.75;;;26.00;58.60;;;;;;5012158;28;20025;-57
2022/05/07 10:50:24;;;;;;;21.80;11.80;;;25.50;57.50;;;;;;5005800;28;20021;-58
2022/05/07 10:52:56;;;;;;;23.27;14.55;;;25.40;57.10;;;;;;5013022;28;20143;-59
2022/05/07 10:55:26;;;;;;;20.42;12.98;;;25.10;57.90;;;;;;5010883;28;20017;-58
2022/05/07 10:57:55;;;;;;;20.50;12.88;;;25.00;57.70;;;;;;5006947;28;20025;-59
2022/05/07 11:00:22;;;;;;;15.60;10.80;;;24.70;57.50;;;;;;5002517;28;20156;-59
2022/05/07 11:02:49;;;;;;;18.42;12.30;;;25.10;57.60;;;;;;5007146;28;20077;-59
2022/05/07 11:05:16;;;;;;;22.10;12.75;;;25.30;56.20;;;;;;5003348;28;22087;-58
2022/05/07 11:07:44;;;;;;;17.42;11.88;;;25.20;56.20;;;;;;5008040;28;20034;-57
2022/05/07 11:10:11;;;;;;;18.02;11.63;;;25.40;56.00;;;;;;5004122;28;20022;-59
2022/05/07 11:12:38;;;;;;;23.77;12.48;;;25.30;56.40;;;;;;5007414;28;20087;-59
2022/05/07 11:15:07;;;;;;;17.17;12.05;;;25.50;56.70;;;;;;5001425;28;20029;-57
2022/05/07 11:17:40;;;;;;;20.13;12.10;;;25.90;55.70;;;;;;5002860;28;20018;-59
2022/05/07 11:20:06;;;;;;;18.00;12.05;;;25.90;55.50;;;;;;4995863;28;20030;-58
2022/05/07 11:22:32;;;;;;;18.20;10.77;;;26.10;55.90;;;;;;5011275;28;20034;-59
2022/05/07 11:25:02;;;;;;;20.00;10.10;;;26.10;56.00;;;;;;5009591;28;20067;-60
2022/05/07 11:27:32;;;;;;;17.25;10.80;;;26.10;56.00;;;;;;4986489;28;20051;-59
2022/05/07 11:29:59;;;;;;;17.52;10.45;;;25.90;54.00;;;;;;5004486;28;20014;-59
2022/05/07 11:32:38;;;;;;;20.55;13.57;;;25.60;56.50;;;;;;5009212;28;20026;-58
2022/05/07 11:35:05;;;;;;;16.42;11.23;;;25.20;57.70;;;;;;5001611;28;20022;-60
2022/05/07 11:37:41;;;;;;;17.35;11.52;;;25.30;57.60;;;;;;5002530;28;20030;-59
2022/05/07 11:40:08;;;;;;;16.52;10.40;;;25.70;57.70;;;;;;5002365;28;20026;-59
2022/05/07 11:45:38;;;;;;;15.23;9.90;;;26.30;56.80;;;;;;4996039;28;20029;-59
2022/05/07 11:48:13;;;;;;;16.58;12.18;;;26.60;56.20;;;;;;5005683;28;20039;-58
2022/05/07 11:50:53;;;;;;;18.40;11.38;;;25.90;55.30;;;;;;5011487;28;20021;-59
2022/05/07 11:53:22;;;;;;;16.23;10.52;;;25.80;54.90;;;;;;5009360;28;20030;-59
2022/05/07 11:55:49;;;;;;;23.33;11.25;;;25.20;55.90;;;;;;5005307;28;20026;-60
2022/05/07 11:58:16;;;;;;;16.30;10.55;;;25.30;56.10;;;;;;4996610;28;20026;-58
2022/05/07 12:00:44;;;;;;;15.18;8.40;;;25.10;55.40;;;;;;5006543;28;20085;-59
2022/05/07 12:03:10;;;;;;;15.68;8.90;;;24.90;55.90;;;;;;5004361;28;20149;-60
2022/05/07 12:05:40;;;;;;;15.32;9.57;;;25.00;55.70;;;;;;5002352;28;20033;-60
2022/05/07 12:08:16;;;;;;;18.52;9.38;;;24.80;54.40;;;;;;5000587;28;20068;-59
2022/05/07 12:10:43;;;;;;;15.10;8.27;;;25.10;55.40;;;;;;5007986;28;20026;-60
2022/05/07 12:13:10;;;;;;;15.48;8.73;;;25.00;54.90;;;;;;4995254;28;20033;-60
2022/05/07 12:18:22;;;;;;;17.65;9.90;;;24.80;55.00;;;;;;5001812;28;20069;-60
2022/05/07 12:20:48;;;;;;;15.77;8.52;;;24.90;56.90;;;;;;5003713;28;20396;-59
2022/05/07 12:31:31;;;;;;;15.98;9.20;;;24.90;58.00;;;;;;5002907;28;20506;-58
2022/05/07 12:33:57;;;;;;;14.30;8.70;;;25.00;57.00;;;;;;4999923;28;20033;-59
2022/05/07 12:36:22;;;;;;;17.58;8.32;;;24.90;57.10;;;;;;5000356;28;20084;-59
2022/05/07 12:38:48;;;;;;;11.95;9.20;;;25.30;56.80;;;;;;5004870;28;20037;-60
2022/05/07 12:41:13;;;;;;;14.95;9.75;;;25.30;56.40;;;;;;5003232;28;20033;-60
2022/05/07 12:43:39;;;;;;;18.23;9.77;;;25.20;56.80;;;;;;5000949;28;20093;-60
2022/05/07 12:46:05;;;;;;;17.63;10.02;;;25.30;56.50;;;;;;5007395;28;20112;-59
2022/05/07 12:48:32;;;;;;;13.73;8.43;;;25.10;57.80;;;;;;5003258;28;20112;-59
2022/05/07 12:50:57;;;;;;;13.63;8.80;;;25.20;57.80;;;;;;5009176;28;20033;-59
2022/05/07 12:53:23;;;;;;;15.63;9.13;;;25.20;56.20;;;;;;5008178;28;20026;-60
2022/05/07 12:55:49;;;;;;;15.32;9.55;;;25.10;55.40;;;;;;5009440;28;20022;-60
2022/05/07 12:58:14;;;;;;;15.57;8.60;;;24.80;54.60;;;;;;5007190;28;20034;-60
2022/05/07 13:00:41;;;;;;;13.32;8.00;;;24.80;55.90;;;;;;5002686;28;20566;-60
2022/05/07 13:03:08;;;;;;;17.00;10.73;;;24.70;56.40;;;;;;4998456;28;20490;-59
2022/05/07 13:05:34;;;;;;;18.73;9.82;;;24.60;55.80;;;;;;5009881;28;20125;-60
2022/05/07 13:08:01;;;;;;;16.33;10.27;;;24.20;56.10;;;;;;5005501;28;20022;-60
2022/05/07 13:10:28;;;;;;;17.27;9.13;;;24.30;55.90;;;;;;5009285;28;20037;-56